sensor_id;sensor_type;location;lat;lon;timestamp;P1;durP1;ratioP1;P2;durP2;ratioP2
14484;SDS011;7328;50.812;4.422;2022-10-16T00:00:57;0.80;;;0.80;;
14484;SDS011;7328;50.812;4.422;2022-10-16T00:03:23;3.33;;;0.87;;
14484;SDS011;7328;50.812;4.422;2022-10-16T00:05:48;1.13;;;0.93;;
14484;SDS011;7328;50.812;4.422;2022-10-16T00:08:14;1.50;;;0.90;;
14484;SDS011;7328;50.812;4.422;2022-10-16T00:10:40;0.73;;;0.60;;
14484;SDS011;7328;50.812;4.422;2022-10-16T00:13:06;1.30;;;0.80;;
14484;SDS011;7328;50.812;4.422;2022-10-16T00:15:34;2.17;;;0.97;;
14484;SDS011;7328;50.812;4.422;2022-10-16T00:18:04;0.63;;;0.40;;
14484;SDS011;7328;50.812;4.422;2022-10-16T00:20:33;1.17;;;0.70;;
14484;SDS011;7328;50.812;4.422;2022-10-16T00:22:59;0.70;;;0.70;;
14484;SDS011;7328;50.812;4.422;2022-10-16T00:25:25;2.07;;;0.90;;
14484;SDS011;7328;50.812;4.422;2022-10-16T00:27:51;3.70;;;1.57;;
14484;SDS011;7328;50.812;4.422;2022-10-16T00:30:16;2.03;;;1.00;;
14484;SDS011;7328;50.812;4.422;2022-10-16T00:32:43;0.97;;;0.80;;
14484;SDS011;7328;50.812;4.422;2022-10-16T00:35:09;2.90;;;0.70;;
14484;SDS011;7328;50.812;4.422;2022-10-16T00:37:35;1.80;;;0.80;;
14484;SDS011;7328;50.812;4.422;2022-10-16T00:40:00;3.10;;;1.10;;
14484;SDS011;7328;50.812;4.422;2022-10-16T00:42:26;2.30;;;1.30;;
14484;SDS011;7328;50.812;4.422;2022-10-16T00:49:56;2.00;;;1.17;;
14484;SDS011;7328;50.812;4.422;2022-10-16T00:52:32;5.17;;;0.90;;
14484;SDS011;7328;50.812;4.422;2022-10-16T00:54:57;5.43;;;0.90;;
14484;SDS011;7328;50.812;4.422;2022-10-16T00:57:25;1.60;;;0.87;;
14484;SDS011;7328;50.812;4.422;2022-10-16T00:59:51;2.67;;;1.00;;
14484;SDS011;7328;50.812;4.422;2022-10-16T01:02:17;1.47;;;0.93;;
14484;SDS011;7328;50.812;4.422;2022-10-16T01:04:44;2.13;;;0.80;;
14484;SDS011;7328;50.812;4.422;2022-10-16T01:20:20;2.10;;;1.10;;
14484;SDS011;7328;50.812;4.422;2022-10-16T01:22:59;1.80;;;1.43;;
14484;SDS011;7328;50.812;4.422;2022-10-16T01:25:43;3.10;;;1.40;;
14484;SDS011;7328;50.812;4.422;2022-10-16T01:28:13;0.40;;;0.40;;
14484;SDS011;7328;50.812;4.422;2022-10-16T01:30:43;9.97;;;1.33;;
14484;SDS011;7328;50.812;4.422;2022-10-16T01:33:21;1.30;;;0.80;;
14484;SDS011;7328;50.812;4.422;2022-10-16T01:35:53;1.23;;;1.13;;
14484;SDS011;7328;50.812;4.422;2022-10-16T01:38:29;1.33;;;1.23;;
14484;SDS011;7328;50.812;4.422;2022-10-16T01:40:59;1.07;;;0.93;;
14484;SDS011;7328;50.812;4.422;2022-10-16T01:46:38;5.27;;;1.37;;
14484;SDS011;7328;50.812;4.422;2022-10-16T01:49:06;1.30;;;1.20;;
14484;SDS011;7328;50.812;4.422;2022-10-16T01:51:35;4.67;;;1.40;;
14484;SDS011;7328;50.812;4.422;2022-10-16T01:54:02;0.90;;;0.90;;
14484;SDS011;7328;50.812;4.422;2022-10-16T01:56:31;1.90;;;0.97;;
14484;SDS011;7328;50.812;4.422;2022-10-16T01:59:00;2.00;;;1.37;;
14484;SDS011;7328;50.812;4.422;2022-10-16T02:01:29;1.20;;;1.10;;
14484;SDS011;7328;50.812;4.422;2022-10-16T02:03:59;3.50;;;1.27;;
14484;SDS011;7328;50.812;4.422;2022-10-16T02:06:30;5.33;;;1.33;;
14484;SDS011;7328;50.812;4.422;2022-10-16T02:08:56;1.30;;;1.20;;
14484;SDS011;7328;50.812;4.422;2022-10-16T02:11:23;1.80;;;0.77;;
14484;SDS011;7328;50.812;4.422;2022-10-16T02:13:58;5.47;;;1.23;;
14484;SDS011;7328;50.812;4.422;2022-10-16T02:16:32;2.23;;;1.67;;
14484;SDS011;7328;50.812;4.422;2022-10-16T02:19:04;1.20;;;1.10;;
14484;SDS011;7328;50.812;4.422;2022-10-16T02:21:44;3.57;;;1.87;;
14484;SDS011;7328;50.812;4.422;2022-10-16T02:24:30;1.53;;;1.43;;
14484;SDS011;7328;50.812;4.422;2022-10-16T02:29:49;1.30;;;1.20;;
14484;SDS011;7328;50.812;4.422;2022-10-16T02:32:23;4.13;;;1.53;;
14484;SDS011;7328;50.812;4.422;2022-10-16T02:34:55;3.57;;;1.37;;
14484;SDS011;7328;50.812;4.422;2022-10-16T02:37:22;1.97;;;1.43;;
14484;SDS011;7328;50.812;4.422;2022-10-16T02:39:49;3.07;;;1.33;;
14484;SDS011;7328;50.812;4.422;2022-10-16T02:42:17;2.33;;;1.27;;
14484;SDS011;7328;50.812;4.422;2022-10-16T02:44:43;2.83;;;1.40;;
14484;SDS011;7328;50.812;4.422;2022-10-16T02:47:09;8.13;;;1.80;;
14484;SDS011;7328;50.812;4.422;2022-10-16T02:49:35;1.40;;;1.30;;
14484;SDS011;7328;50.812;4.422;2022-10-16T02:52:01;1.83;;;1.40;;
14484;SDS011;7328;50.812;4.422;2022-10-16T02:54:26;1.57;;;1.23;;
14484;SDS011;7328;50.812;4.422;2022-10-16T02:56:52;1.93;;;1.73;;
14484;SDS011;7328;50.812;4.422;2022-10-16T02:59:18;4.40;;;1.40;;
14484;SDS011;7328;50.812;4.422;2022-10-16T03:01:44;4.87;;;1.50;;
14484;SDS011;7328;50.812;4.422;2022-10-16T03:04:09;5.17;;;1.20;;
14484;SDS011;7328;50.812;4.422;2022-10-16T03:06:35;2.27;;;1.70;;
14484;SDS011;7328;50.812;4.422;2022-10-16T03:09:01;2.17;;;1.10;;
14484;SDS011;7328;50.812;4.422;2022-10-16T03:11:26;2.13;;;1.60;;
14484;SDS011;7328;50.812;4.422;2022-10-16T03:13:53;1.60;;;1.50;;
14484;SDS011;7328;50.812;4.422;2022-10-16T03:16:18;5.77;;;1.97;;
14484;SDS011;7328;50.812;4.422;2022-10-16T03:18:47;2.40;;;1.40;;
14484;SDS011;7328;50.812;4.422;2022-10-16T03:21:14;1.90;;;1.47;;
14484;SDS011;7328;50.812;4.422;2022-10-16T03:23:40;4.63;;;1.93;;
14484;SDS011;7328;50.812;4.422;2022-10-16T03:26:06;3.23;;;2.27;;
14484;SDS011;7328;50.812;4.422;2022-10-16T03:28:32;1.17;;;1.00;;
14484;SDS011;7328;50.812;4.422;2022-10-16T03:30:57;2.37;;;1.83;;
14484;SDS011;7328;50.812;4.422;2022-10-16T03:33:23;1.83;;;1.73;;
14484;SDS011;7328;50.812;4.422;2022-10-16T03:35:52;1.73;;;1.63;;
14484;SDS011;7328;50.812;4.422;2022-10-16T03:38:19;1.83;;;1.57;;
14484;SDS011;7328;50.812;4.422;2022-10-16T03:40:46;2.27;;;1.60;;
14484;SDS011;7328;50.812;4.422;2022-10-16T03:43:12;3.37;;;2.27;;
14484;SDS011;7328;50.812;4.422;2022-10-16T03:45:38;1.63;;;1.40;;
14484;SDS011;7328;50.812;4.422;2022-10-16T03:48:03;2.53;;;1.20;;
14484;SDS011;7328;50.812;4.422;2022-10-16T03:50:29;1.83;;;1.70;;
14484;SDS011;7328;50.812;4.422;2022-10-16T03:52:55;1.60;;;1.50;;
14484;SDS011;7328;50.812;4.422;2022-10-16T03:55:21;1.87;;;1.67;;
14484;SDS011;7328;50.812;4.422;2022-10-16T03:57:46;2.07;;;1.57;;
14484;SDS011;7328;50.812;4.422;2022-10-16T04:00:12;5.20;;;1.27;;
14484;SDS011;7328;50.812;4.422;2022-10-16T04:02:38;2.90;;;1.90;;
14484;SDS011;7328;50.812;4.422;2022-10-16T04:05:05;2.43;;;1.80;;
14484;SDS011;7328;50.812;4.422;2022-10-16T04:07:31;5.47;;;1.63;;
14484;SDS011;7328;50.812;4.422;2022-10-16T04:09:56;2.07;;;1.50;;
14484;SDS011;7328;50.812;4.422;2022-10-16T04:12:24;6.90;;;1.67;;
14484;SDS011;7328;50.812;4.422;2022-10-16T04:14:50;4.40;;;1.67;;
14484;SDS011;7328;50.812;4.422;2022-10-16T04:17:16;2.00;;;1.90;;
14484;SDS011;7328;50.812;4.422;2022-10-16T04:19:41;1.77;;;1.30;;
14484;SDS011;7328;50.812;4.422;2022-10-16T04:22:07;2.20;;;1.77;;
14484;SDS011;7328;50.812;4.422;2022-10-16T04:24:33;2.77;;;1.80;;
14484;SDS011;7328;50.812;4.422;2022-10-16T04:26:59;2.67;;;2.00;;
14484;SDS011;7328;50.812;4.422;2022-10-16T04:29:25;3.97;;;1.53;;
14484;SDS011;7328;50.812;4.422;2022-10-16T04:31:50;2.33;;;1.37;;
14484;SDS011;7328;50.812;4.422;2022-10-16T04:34:16;2.40;;;1.97;;
14484;SDS011;7328;50.812;4.422;2022-10-16T04:36:42;4.00;;;1.93;;
14484;SDS011;7328;50.812;4.422;2022-10-16T04:39:08;2.70;;;2.17;;
14484;SDS011;7328;50.812;4.422;2022-10-16T04:41:33;2.10;;;1.60;;
14484;SDS011;7328;50.812;4.422;2022-10-16T04:43:59;1.63;;;1.40;;
14484;SDS011;7328;50.812;4.422;2022-10-16T04:46:25;5.43;;;1.80;;
14484;SDS011;7328;50.812;4.422;2022-10-16T04:48:50;4.03;;;1.80;;
14484;SDS011;7328;50.812;4.422;2022-10-16T04:51:16;5.23;;;1.80;;
14484;SDS011;7328;50.812;4.422;2022-10-16T04:53:43;1.43;;;1.30;;
14484;SDS011;7328;50.812;4.422;2022-10-16T04:56:09;2.33;;;1.87;;
14484;SDS011;7328;50.812;4.422;2022-10-16T04:58:35;2.13;;;1.63;;
14484;SDS011;7328;50.812;4.422;2022-10-16T05:01:01;1.90;;;1.80;;
14484;SDS011;7328;50.812;4.422;2022-10-16T05:03:26;2.67;;;1.87;;
14484;SDS011;7328;50.812;4.422;2022-10-16T05:05:52;2.27;;;1.60;;
14484;SDS011;7328;50.812;4.422;2022-10-16T05:08:18;2.07;;;1.60;;
14484;SDS011;7328;50.812;4.422;2022-10-16T05:10:44;3.07;;;1.67;;
14484;SDS011;7328;50.812;4.422;2022-10-16T05:13:10;7.03;;;2.63;;
14484;SDS011;7328;50.812;4.422;2022-10-16T05:15:37;1.60;;;1.30;;
14484;SDS011;7328;50.812;4.422;2022-10-16T05:18:02;2.10;;;1.73;;
14484;SDS011;7328;50.812;4.422;2022-10-16T05:20:28;2.87;;;2.10;;
14484;SDS011;7328;50.812;4.422;2022-10-16T05:22:54;1.87;;;1.60;;
14484;SDS011;7328;50.812;4.422;2022-10-16T05:25:20;2.23;;;1.40;;
14484;SDS011;7328;50.812;4.422;2022-10-16T05:27:49;6.57;;;1.47;;
14484;SDS011;7328;50.812;4.422;2022-10-16T05:30:15;4.13;;;2.03;;
14484;SDS011;7328;50.812;4.422;2022-10-16T05:32:45;4.10;;;1.87;;
14484;SDS011;7328;50.812;4.422;2022-10-16T05:35:12;3.43;;;2.43;;
14484;SDS011;7328;50.812;4.422;2022-10-16T05:37:38;2.50;;;1.97;;
14484;SDS011;7328;50.812;4.422;2022-10-16T05:40:04;3.80;;;1.80;;
14484;SDS011;7328;50.812;4.422;2022-10-16T05:42:30;2.17;;;1.87;;
14484;SDS011;7328;50.812;4.422;2022-10-16T05:44:56;3.90;;;1.50;;
14484;SDS011;7328;50.812;4.422;2022-10-16T05:47:22;6.60;;;1.90;;
14484;SDS011;7328;50.812;4.422;2022-10-16T05:49:47;4.97;;;1.47;;
14484;SDS011;7328;50.812;4.422;2022-10-16T05:52:13;4.77;;;2.27;;
14484;SDS011;7328;50.812;4.422;2022-10-16T05:54:39;4.33;;;1.87;;
14484;SDS011;7328;50.812;4.422;2022-10-16T05:57:04;2.60;;;2.00;;
14484;SDS011;7328;50.812;4.422;2022-10-16T05:59:31;4.10;;;1.93;;
14484;SDS011;7328;50.812;4.422;2022-10-16T06:01:57;2.30;;;1.87;;
14484;SDS011;7328;50.812;4.422;2022-10-16T06:04:22;6.27;;;2.03;;
14484;SDS011;7328;50.812;4.422;2022-10-16T06:06:48;2.37;;;2.13;;
14484;SDS011;7328;50.812;4.422;2022-10-16T06:09:15;2.77;;;2.50;;
14484;SDS011;7328;50.812;4.422;2022-10-16T06:11:42;3.53;;;2.50;;
14484;SDS011;7328;50.812;4.422;2022-10-16T06:14:08;2.10;;;2.00;;
14484;SDS011;7328;50.812;4.422;2022-10-16T06:16:34;3.00;;;1.97;;
14484;SDS011;7328;50.812;4.422;2022-10-16T06:19:01;2.40;;;2.00;;
14484;SDS011;7328;50.812;4.422;2022-10-16T06:21:30;2.90;;;2.17;;
14484;SDS011;7328;50.812;4.422;2022-10-16T06:23:56;1.93;;;1.83;;
14484;SDS011;7328;50.812;4.422;2022-10-16T06:26:23;1.87;;;1.77;;
14484;SDS011;7328;50.812;4.422;2022-10-16T06:28:51;3.53;;;2.20;;
14484;SDS011;7328;50.812;4.422;2022-10-16T06:31:18;5.90;;;1.90;;
14484;SDS011;7328;50.812;4.422;2022-10-16T06:33:44;6.17;;;2.80;;
14484;SDS011;7328;50.812;4.422;2022-10-16T06:36:14;4.03;;;1.90;;
14484;SDS011;7328;50.812;4.422;2022-10-16T06:38:41;3.30;;;2.33;;
14484;SDS011;7328;50.812;4.422;2022-10-16T06:41:09;4.47;;;2.20;;
14484;SDS011;7328;50.812;4.422;2022-10-16T06:43:39;3.53;;;1.67;;
14484;SDS011;7328;50.812;4.422;2022-10-16T06:46:06;3.97;;;2.20;;
14484;SDS011;7328;50.812;4.422;2022-10-16T06:48:33;6.23;;;2.47;;
14484;SDS011;7328;50.812;4.422;2022-10-16T06:51:10;3.17;;;1.77;;
14484;SDS011;7328;50.812;4.422;2022-10-16T06:53:38;4.77;;;2.37;;
14484;SDS011;7328;50.812;4.422;2022-10-16T06:56:09;4.23;;;1.97;;
14484;SDS011;7328;50.812;4.422;2022-10-16T06:58:40;15.87;;;2.33;;
14484;SDS011;7328;50.812;4.422;2022-10-16T07:01:06;6.00;;;1.90;;
14484;SDS011;7328;50.812;4.422;2022-10-16T07:03:33;5.93;;;1.67;;
14484;SDS011;7328;50.812;4.422;2022-10-16T07:06:05;2.77;;;1.77;;
14484;SDS011;7328;50.812;4.422;2022-10-16T07:08:32;4.83;;;1.93;;
14484;SDS011;7328;50.812;4.422;2022-10-16T07:11:02;2.30;;;1.57;;
14484;SDS011;7328;50.812;4.422;2022-10-16T07:13:31;5.77;;;2.30;;
14484;SDS011;7328;50.812;4.422;2022-10-16T07:16:03;3.63;;;2.70;;
14484;SDS011;7328;50.812;4.422;2022-10-16T07:18:33;3.23;;;1.87;;
14484;SDS011;7328;50.812;4.422;2022-10-16T07:21:03;4.03;;;2.30;;
14484;SDS011;7328;50.812;4.422;2022-10-16T07:23:33;3.53;;;1.67;;
14484;SDS011;7328;50.812;4.422;2022-10-16T07:25:59;1.80;;;1.70;;
14484;SDS011;7328;50.812;4.422;2022-10-16T07:28:25;1.97;;;1.30;;
14484;SDS011;7328;50.812;4.422;2022-10-16T07:30:51;1.50;;;1.40;;
14484;SDS011;7328;50.812;4.422;2022-10-16T07:33:17;2.30;;;2.03;;
14484;SDS011;7328;50.812;4.422;2022-10-16T07:35:53;2.17;;;1.70;;
14484;SDS011;7328;50.812;4.422;2022-10-16T07:38:20;3.53;;;2.10;;
14484;SDS011;7328;50.812;4.422;2022-10-16T07:40:46;2.90;;;1.20;;
14484;SDS011;7328;50.812;4.422;2022-10-16T07:43:13;3.30;;;1.70;;
14484;SDS011;7328;50.812;4.422;2022-10-16T07:45:48;1.87;;;1.67;;
14484;SDS011;7328;50.812;4.422;2022-10-16T07:48:16;1.77;;;1.60;;
14484;SDS011;7328;50.812;4.422;2022-10-16T07:50:42;2.37;;;1.73;;
14484;SDS011;7328;50.812;4.422;2022-10-16T07:53:08;3.40;;;1.80;;
14484;SDS011;7328;50.812;4.422;2022-10-16T07:55:34;3.50;;;2.17;;
14484;SDS011;7328;50.812;4.422;2022-10-16T07:58:00;4.27;;;2.53;;
14484;SDS011;7328;50.812;4.422;2022-10-16T08:00:26;2.57;;;1.80;;
14484;SDS011;7328;50.812;4.422;2022-10-16T08:02:51;4.50;;;2.03;;
14484;SDS011;7328;50.812;4.422;2022-10-16T08:05:17;4.00;;;2.00;;
14484;SDS011;7328;50.812;4.422;2022-10-16T08:07:47;3.77;;;2.20;;
14484;SDS011;7328;50.812;4.422;2022-10-16T08:10:15;2.97;;;1.73;;
14484;SDS011;7328;50.812;4.422;2022-10-16T08:12:45;2.07;;;1.13;;
14484;SDS011;7328;50.812;4.422;2022-10-16T08:15:11;3.13;;;1.23;;
14484;SDS011;7328;50.812;4.422;2022-10-16T08:17:37;2.30;;;1.70;;
14484;SDS011;7328;50.812;4.422;2022-10-16T08:20:03;3.60;;;1.60;;
14484;SDS011;7328;50.812;4.422;2022-10-16T08:22:30;6.27;;;1.60;;
14484;SDS011;7328;50.812;4.422;2022-10-16T08:24:56;1.57;;;1.13;;
14484;SDS011;7328;50.812;4.422;2022-10-16T08:27:22;6.23;;;1.73;;
14484;SDS011;7328;50.812;4.422;2022-10-16T08:29:50;3.17;;;1.60;;
14484;SDS011;7328;50.812;4.422;2022-10-16T08:32:16;4.70;;;1.77;;
14484;SDS011;7328;50.812;4.422;2022-10-16T08:34:42;3.80;;;1.43;;
14484;SDS011;7328;50.812;4.422;2022-10-16T08:37:07;6.17;;;1.53;;
14484;SDS011;7328;50.812;4.422;2022-10-16T08:39:36;2.80;;;1.57;;
14484;SDS011;7328;50.812;4.422;2022-10-16T08:52:29;2.70;;;1.10;;
14484;SDS011;7328;50.812;4.422;2022-10-16T08:54:58;5.40;;;1.30;;
14484;SDS011;7328;50.812;4.422;2022-10-16T08:57:25;3.90;;;1.47;;
14484;SDS011;7328;50.812;4.422;2022-10-16T08:59:52;6.37;;;1.93;;
14484;SDS011;7328;50.812;4.422;2022-10-16T09:05:14;3.17;;;1.50;;
14484;SDS011;7328;50.812;4.422;2022-10-16T09:08:06;8.23;;;1.73;;
14484;SDS011;7328;50.812;4.422;2022-10-16T09:13:26;5.37;;;1.30;;
14484;SDS011;7328;50.812;4.422;2022-10-16T09:16:30;2.83;;;1.20;;
14484;SDS011;7328;50.812;4.422;2022-10-16T09:21:37;3.13;;;1.50;;
14484;SDS011;7328;50.812;4.422;2022-10-16T09:24:16;2.97;;;1.87;;
14484;SDS011;7328;50.812;4.422;2022-10-16T09:26:44;3.43;;;1.57;;
14484;SDS011;7328;50.812;4.422;2022-10-16T09:29:14;2.03;;;1.30;;
14484;SDS011;7328;50.812;4.422;2022-10-16T09:31:42;5.13;;;1.70;;
14484;SDS011;7328;50.812;4.422;2022-10-16T09:34:52;4.70;;;1.20;;
14484;SDS011;7328;50.812;4.422;2022-10-16T09:37:10;4.20;;;2.03;;
14484;SDS011;7328;50.812;4.422;2022-10-16T09:39:51;5.57;;;1.30;;
14484;SDS011;7328;50.812;4.422;2022-10-16T09:42:22;10.20;;;1.93;;
14484;SDS011;7328;50.812;4.422;2022-10-16T09:44:56;3.17;;;0.93;;
14484;SDS011;7328;50.812;4.422;2022-10-16T09:47:23;2.33;;;1.53;;
14484;SDS011;7328;50.812;4.422;2022-10-16T09:49:52;4.27;;;1.60;;
14484;SDS011;7328;50.812;4.422;2022-10-16T09:52:23;3.00;;;1.43;;
14484;SDS011;7328;50.812;4.422;2022-10-16T09:54:53;2.63;;;1.20;;
14484;SDS011;7328;50.812;4.422;2022-10-16T09:57:21;3.53;;;1.13;;
14484;SDS011;7328;50.812;4.422;2022-10-16T10:02:16;2.87;;;1.10;;
14484;SDS011;7328;50.812;4.422;2022-10-16T10:04:48;3.63;;;1.33;;
14484;SDS011;7328;50.812;4.422;2022-10-16T10:07:35;4.37;;;1.30;;
14484;SDS011;7328;50.812;4.422;2022-10-16T10:10:20;4.77;;;1.43;;
14484;SDS011;7328;50.812;4.422;2022-10-16T10:12:52;4.83;;;1.23;;
14484;SDS011;7328;50.812;4.422;2022-10-16T10:15:18;4.43;;;1.00;;
14484;SDS011;7328;50.812;4.422;2022-10-16T10:17:50;1.90;;;0.97;;
14484;SDS011;7328;50.812;4.422;2022-10-16T10:23:00;7.70;;;3.87;;
14484;SDS011;7328;50.812;4.422;2022-10-16T10:28:39;1.83;;;0.90;;
14484;SDS011;7328;50.812;4.422;2022-10-16T10:31:17;2.90;;;1.40;;
14484;SDS011;7328;50.812;4.422;2022-10-16T10:37:01;16.57;;;1.33;;
14484;SDS011;7328;50.812;4.422;2022-10-16T10:39:36;1.77;;;1.07;;
14484;SDS011;7328;50.812;4.422;2022-10-16T10:45:22;8.60;;;1.23;;
14484;SDS011;7328;50.812;4.422;2022-10-16T10:51:23;4.60;;;1.53;;
14484;SDS011;7328;50.812;4.422;2022-10-16T11:07:05;2.90;;;0.87;;
14484;SDS011;7328;50.812;4.422;2022-10-16T11:09:56;3.60;;;1.30;;
14484;SDS011;7328;50.812;4.422;2022-10-16T11:12:30;4.13;;;1.27;;
14484;SDS011;7328;50.812;4.422;2022-10-16T11:20:22;3.57;;;1.90;;
14484;SDS011;7328;50.812;4.422;2022-10-16T11:22:52;4.67;;;0.83;;
14484;SDS011;7328;50.812;4.422;2022-10-16T11:28:00;0.97;;;0.97;;
14484;SDS011;7328;50.812;4.422;2022-10-16T11:30:54;4.77;;;1.40;;
14484;SDS011;7328;50.812;4.422;2022-10-16T11:33:36;4.23;;;1.07;;
14484;SDS011;7328;50.812;4.422;2022-10-16T11:41:35;2.73;;;0.80;;
14484;SDS011;7328;50.812;4.422;2022-10-16T11:46:58;1.80;;;0.90;;
14484;SDS011;7328;50.812;4.422;2022-10-16T11:49:26;4.00;;;1.03;;
14484;SDS011;7328;50.812;4.422;2022-10-16T11:54:50;2.57;;;0.77;;
14484;SDS011;7328;50.812;4.422;2022-10-16T11:57:37;6.37;;;1.70;;
14484;SDS011;7328;50.812;4.422;2022-10-16T12:00:09;2.60;;;1.20;;
14484;SDS011;7328;50.812;4.422;2022-10-16T12:05:37;6.10;;;1.93;;
14484;SDS011;7328;50.812;4.422;2022-10-16T12:08:16;3.37;;;1.87;;
14484;SDS011;7328;50.812;4.422;2022-10-16T12:10:44;3.27;;;1.10;;
14484;SDS011;7328;50.812;4.422;2022-10-16T12:16:04;3.07;;;0.57;;
14484;SDS011;7328;50.812;4.422;2022-10-16T12:18:31;7.27;;;1.23;;
14484;SDS011;7328;50.812;4.422;2022-10-16T12:20:57;4.93;;;1.20;;
14484;SDS011;7328;50.812;4.422;2022-10-16T12:23:33;6.90;;;1.97;;
14484;SDS011;7328;50.812;4.422;2022-10-16T12:26:03;3.50;;;1.50;;
14484;SDS011;7328;50.812;4.422;2022-10-16T12:28:30;3.77;;;1.47;;
14484;SDS011;7328;50.812;4.422;2022-10-16T12:30:58;4.23;;;0.90;;
14484;SDS011;7328;50.812;4.422;2022-10-16T12:34:03;2.13;;;0.50;;
14484;SDS011;7328;50.812;4.422;2022-10-16T12:36:32;3.30;;;1.40;;
14484;SDS011;7328;50.812;4.422;2022-10-16T12:39:00;5.97;;;1.23;;
14484;SDS011;7328;50.812;4.422;2022-10-16T12:41:33;3.70;;;1.03;;
14484;SDS011;7328;50.812;4.422;2022-10-16T12:44:01;9.57;;;1.93;;
14484;SDS011;7328;50.812;4.422;2022-10-16T12:51:39;4.80;;;1.20;;
14484;SDS011;7328;50.812;4.422;2022-10-16T12:57:28;1.70;;;1.17;;
14484;SDS011;7328;50.812;4.422;2022-10-16T12:59:37;3.90;;;1.17;;
14484;SDS011;7328;50.812;4.422;2022-10-16T13:07:51;3.50;;;1.17;;
14484;SDS011;7328;50.812;4.422;2022-10-16T13:10:26;1.60;;;0.47;;
14484;SDS011;7328;50.812;4.422;2022-10-16T13:13:05;0.97;;;0.70;;
14484;SDS011;7328;50.812;4.422;2022-10-16T13:18:57;3.13;;;1.43;;
14484;SDS011;7328;50.812;4.422;2022-10-16T13:21:38;2.50;;;0.70;;
14484;SDS011;7328;50.812;4.422;2022-10-16T13:29:59;2.83;;;0.80;;
14484;SDS011;7328;50.812;4.422;2022-10-16T13:32:46;1.40;;;0.93;;
14484;SDS011;7328;50.812;4.422;2022-10-16T13:35:33;0.80;;;0.80;;
14484;SDS011;7328;50.812;4.422;2022-10-16T13:38:03;3.87;;;1.10;;
14484;SDS011;7328;50.812;4.422;2022-10-16T13:43:49;2.00;;;0.73;;
14484;SDS011;7328;50.812;4.422;2022-10-16T13:46:17;1.33;;;0.60;;
14484;SDS011;7328;50.812;4.422;2022-10-16T13:48:55;4.10;;;1.00;;
14484;SDS011;7328;50.812;4.422;2022-10-16T13:51:24;1.60;;;0.80;;
14484;SDS011;7328;50.812;4.422;2022-10-16T13:53:51;2.63;;;1.00;;
14484;SDS011;7328;50.812;4.422;2022-10-16T13:56:18;1.03;;;0.73;;
14484;SDS011;7328;50.812;4.422;2022-10-16T13:58:46;5.77;;;1.30;;
14484;SDS011;7328;50.812;4.422;2022-10-16T14:01:23;4.93;;;1.00;;
14484;SDS011;7328;50.812;4.422;2022-10-16T14:04:00;5.53;;;1.27;;
14484;SDS011;7328;50.812;4.422;2022-10-16T14:06:31;3.93;;;1.03;;
14484;SDS011;7328;50.812;4.422;2022-10-16T14:11:42;1.27;;;0.90;;
14484;SDS011;7328;50.812;4.422;2022-10-16T14:14:13;1.93;;;0.80;;
14484;SDS011;7328;50.812;4.422;2022-10-16T14:16:40;2.73;;;0.93;;
14484;SDS011;7328;50.812;4.422;2022-10-16T14:19:26;1.07;;;0.90;;
14484;SDS011;7328;50.812;4.422;2022-10-16T14:21:54;2.97;;;1.17;;
14484;SDS011;7328;50.812;4.422;2022-10-16T14:26:52;1.87;;;0.50;;
14484;SDS011;7328;50.812;4.422;2022-10-16T14:29:21;6.13;;;2.00;;
14484;SDS011;7328;50.812;4.422;2022-10-16T14:32:01;4.07;;;1.47;;
14484;SDS011;7328;50.812;4.422;2022-10-16T14:34:33;5.97;;;1.30;;
14484;SDS011;7328;50.812;4.422;2022-10-16T14:37:01;1.83;;;1.33;;
14484;SDS011;7328;50.812;4.422;2022-10-16T14:39:49;3.53;;;1.20;;
14484;SDS011;7328;50.812;4.422;2022-10-16T14:42:16;1.50;;;1.00;;
14484;SDS011;7328;50.812;4.422;2022-10-16T14:44:44;4.87;;;1.53;;
14484;SDS011;7328;50.812;4.422;2022-10-16T14:47:13;5.20;;;1.10;;
14484;SDS011;7328;50.812;4.422;2022-10-16T14:49:47;3.73;;;1.17;;
14484;SDS011;7328;50.812;4.422;2022-10-16T14:52:13;1.27;;;1.17;;
14484;SDS011;7328;50.812;4.422;2022-10-16T14:54:40;2.63;;;1.10;;
14484;SDS011;7328;50.812;4.422;2022-10-16T14:57:12;5.93;;;2.17;;
14484;SDS011;7328;50.812;4.422;2022-10-16T14:59:46;1.40;;;1.23;;
14484;SDS011;7328;50.812;4.422;2022-10-16T15:04:48;4.70;;;1.90;;
14484;SDS011;7328;50.812;4.422;2022-10-16T15:07:14;1.97;;;1.70;;
14484;SDS011;7328;50.812;4.422;2022-10-16T15:09:40;4.90;;;1.83;;
14484;SDS011;7328;50.812;4.422;2022-10-16T15:12:06;3.27;;;1.43;;
14484;SDS011;7328;50.812;4.422;2022-10-16T15:14:31;3.53;;;1.07;;
14484;SDS011;7328;50.812;4.422;2022-10-16T15:16:57;2.87;;;1.63;;
14484;SDS011;7328;50.812;4.422;2022-10-16T15:19:23;6.87;;;1.60;;
14484;SDS011;7328;50.812;4.422;2022-10-16T15:21:49;4.30;;;1.00;;
14484;SDS011;7328;50.812;4.422;2022-10-16T15:24:14;1.53;;;1.10;;
14484;SDS011;7328;50.812;4.422;2022-10-16T15:26:40;4.10;;;1.33;;
14484;SDS011;7328;50.812;4.422;2022-10-16T15:29:06;2.70;;;1.40;;
14484;SDS011;7328;50.812;4.422;2022-10-16T15:31:32;2.43;;;1.53;;
14484;SDS011;7328;50.812;4.422;2022-10-16T15:33:58;1.83;;;1.10;;
14484;SDS011;7328;50.812;4.422;2022-10-16T15:36:30;1.73;;;1.00;;
14484;SDS011;7328;50.812;4.422;2022-10-16T15:39:02;6.60;;;1.40;;
14484;SDS011;7328;50.812;4.422;2022-10-16T15:41:28;9.27;;;2.03;;
14484;SDS011;7328;50.812;4.422;2022-10-16T15:43:54;3.13;;;1.60;;
14484;SDS011;7328;50.812;4.422;2022-10-16T15:46:21;2.27;;;1.47;;
14484;SDS011;7328;50.812;4.422;2022-10-16T15:48:48;4.63;;;2.13;;
14484;SDS011;7328;50.812;4.422;2022-10-16T15:51:15;6.47;;;1.70;;
14484;SDS011;7328;50.812;4.422;2022-10-16T15:53:42;3.07;;;1.20;;
14484;SDS011;7328;50.812;4.422;2022-10-16T15:56:08;6.67;;;1.43;;
14484;SDS011;7328;50.812;4.422;2022-10-16T15:58:36;3.30;;;1.13;;
14484;SDS011;7328;50.812;4.422;2022-10-16T16:01:02;2.67;;;2.43;;
14484;SDS011;7328;50.812;4.422;2022-10-16T16:03:29;1.43;;;1.33;;
14484;SDS011;7328;50.812;4.422;2022-10-16T16:05:55;5.50;;;1.13;;
14484;SDS011;7328;50.812;4.422;2022-10-16T16:08:21;4.13;;;1.30;;
14484;SDS011;7328;50.812;4.422;2022-10-16T16:11:00;3.20;;;1.33;;
14484;SDS011;7328;50.812;4.422;2022-10-16T16:13:27;4.37;;;1.40;;
14484;SDS011;7328;50.812;4.422;2022-10-16T16:15:54;6.87;;;2.73;;
14484;SDS011;7328;50.812;4.422;2022-10-16T16:18:19;9.67;;;2.90;;
14484;SDS011;7328;50.812;4.422;2022-10-16T16:20:45;5.07;;;3.83;;
14484;SDS011;7328;50.812;4.422;2022-10-16T16:23:11;8.87;;;4.20;;
14484;SDS011;7328;50.812;4.422;2022-10-16T16:25:37;5.93;;;4.00;;
14484;SDS011;7328;50.812;4.422;2022-10-16T16:28:03;8.27;;;4.50;;
14484;SDS011;7328;50.812;4.422;2022-10-16T16:30:28;15.57;;;4.20;;
14484;SDS011;7328;50.812;4.422;2022-10-16T16:32:54;7.00;;;3.70;;
14484;SDS011;7328;50.812;4.422;2022-10-16T16:35:20;5.57;;;3.53;;
14484;SDS011;7328;50.812;4.422;2022-10-16T16:37:46;5.63;;;4.17;;
14484;SDS011;7328;50.812;4.422;2022-10-16T16:40:12;6.37;;;4.50;;
14484;SDS011;7328;50.812;4.422;2022-10-16T16:42:38;11.73;;;5.93;;
14484;SDS011;7328;50.812;4.422;2022-10-16T16:45:04;11.53;;;7.50;;
14484;SDS011;7328;50.812;4.422;2022-10-16T16:47:30;10.47;;;7.03;;
14484;SDS011;7328;50.812;4.422;2022-10-16T16:49:56;12.23;;;8.60;;
14484;SDS011;7328;50.812;4.422;2022-10-16T16:52:22;13.70;;;7.03;;
14484;SDS011;7328;50.812;4.422;2022-10-16T16:54:48;12.07;;;6.87;;
14484;SDS011;7328;50.812;4.422;2022-10-16T16:57:16;8.53;;;6.33;;
14484;SDS011;7328;50.812;4.422;2022-10-16T16:59:45;14.07;;;10.17;;
14484;SDS011;7328;50.812;4.422;2022-10-16T17:02:11;16.53;;;11.73;;
14484;SDS011;7328;50.812;4.422;2022-10-16T17:04:37;8.70;;;5.90;;
14484;SDS011;7328;50.812;4.422;2022-10-16T17:07:02;7.77;;;6.63;;
14484;SDS011;7328;50.812;4.422;2022-10-16T17:09:28;10.20;;;7.23;;
14484;SDS011;7328;50.812;4.422;2022-10-16T17:11:56;17.07;;;6.47;;
14484;SDS011;7328;50.812;4.422;2022-10-16T17:14:22;10.27;;;7.40;;
14484;SDS011;7328;50.812;4.422;2022-10-16T17:16:47;11.17;;;5.77;;
14484;SDS011;7328;50.812;4.422;2022-10-16T17:19:15;14.20;;;6.47;;
14484;SDS011;7328;50.812;4.422;2022-10-16T17:21:42;16.80;;;7.97;;
14484;SDS011;7328;50.812;4.422;2022-10-16T17:24:08;15.10;;;6.17;;